createdAt,value
2022-08-18T00:00:05.725Z,22.40
2022-08-18T00:02:43.491Z,22.50
2022-08-18T00:05:22.517Z,22.40
2022-08-18T00:07:50.570Z,22.40
2022-08-18T00:10:20.217Z,22.40
2022-08-18T00:12:48.418Z,22.40
2022-08-18T00:15:19.300Z,22.40
2022-08-18T00:17:47.849Z,22.30
2022-08-18T00:20:18.567Z,22.20
2022-08-18T00:22:47.253Z,22.30
2022-08-18T00:25:19.070Z,22.20
2022-08-18T00:27:47.269Z,22.20
2022-08-18T00:30:21.773Z,22.10
2022-08-18T00:32:58.369Z,22.10
2022-08-18T00:35:30.291Z,22.10
2022-08-18T00:38:02.247Z,22.10
2022-08-18T00:40:37.976Z,22.10
2022-08-18T00:43:10.222Z,22.20
2022-08-18T00:45:42.119Z,22.30
2022-08-18T00:48:12.540Z,22.20
2022-08-18T00:50:44.779Z,22.20
2022-08-18T00:53:18.027Z,22.20
2022-08-18T00:55:54.259Z,22.30
2022-08-18T00:58:29.816Z,22.30
2022-08-18T01:00:58.299Z,22.50
2022-08-18T01:03:26.827Z,22.60
2022-08-18T01:06:00.589Z,22.70
2022-08-18T01:08:29.470Z,22.70
2022-08-18T01:11:01.655Z,22.70
2022-08-18T01:13:34.954Z,22.70
2022-08-18T01:16:24.009Z,22.70
2022-08-18T01:19:09.659Z,22.90
2022-08-18T01:21:52.027Z,22.80
2022-08-18T01:24:45.458Z,22.80
2022-08-18T01:27:17.862Z,22.80
2022-08-18T01:29:46.304Z,22.70
2022-08-18T01:32:20.355Z,22.60
2022-08-18T01:34:50.993Z,22.70
2022-08-18T01:37:22.450Z,22.70
2022-08-18T01:41:22.007Z,22.70
2022-08-18T01:42:45.756Z,22.70
2022-08-18T01:45:17.004Z,22.60
2022-08-18T01:47:57.339Z,22.60
2022-08-18T01:50:25.427Z,22.50
2022-08-18T01:52:53.896Z,22.40
2022-08-18T01:55:23.466Z,22.30
2022-08-18T01:57:51.653Z,22.20
2022-08-18T02:00:20.124Z,22.00
2022-08-18T02:03:00.238Z,21.80
2022-08-18T02:05:37.485Z,21.70
2022-08-18T02:08:06.895Z,21.80
2022-08-18T02:10:36.714Z,21.80
2022-08-18T02:13:04.805Z,21.70
2022-08-18T02:15:33.288Z,21.50
2022-08-18T02:18:01.896Z,21.60
2022-08-18T02:20:31.819Z,21.70
2022-08-18T02:23:02.579Z,21.60
2022-08-18T02:25:30.679Z,21.60
2022-08-18T02:28:00.144Z,21.60
2022-08-18T02:30:28.197Z,21.70
2022-08-18T02:32:56.669Z,21.70
2022-08-18T02:35:26.451Z,21.80
2022-08-18T02:37:54.790Z,21.60
2022-08-18T02:40:22.934Z,21.60
2022-08-18T02:42:52.765Z,21.70
2022-08-18T02:45:24.103Z,21.70
2022-08-18T02:47:58.169Z,21.70
2022-08-18T02:50:26.209Z,21.70
2022-08-18T02:52:54.767Z,21.80
2022-08-18T02:55:26.545Z,21.80
2022-08-18T02:57:54.716Z,21.80
2022-08-18T03:00:24.281Z,21.80
2022-08-18T03:02:53.411Z,21.70
2022-08-18T03:05:21.796Z,21.50
2022-08-18T03:07:51.111Z,21.20
2022-08-18T03:10:32.386Z,21.20
2022-08-18T03:13:02.421Z,21.20
2022-08-18T03:15:32.100Z,21.40
2022-08-18T03:18:02.045Z,21.40
2022-08-18T03:20:31.463Z,21.20
2022-08-18T03:23:05.463Z,21.10
2022-08-18T03:25:44.317Z,21.20
2022-08-18T03:28:12.731Z,21.20
2022-08-18T03:30:42.174Z,21.10
2022-08-18T03:33:10.553Z,21.00
2022-08-18T03:35:38.867Z,21.00
2022-08-18T03:38:07.016Z,21.00
2022-08-18T03:40:35.608Z,20.90
2022-08-18T03:43:49.548Z,20.90
2022-08-18T03:45:56.022Z,21.00
2022-08-18T03:48:25.265Z,21.10
2022-08-18T03:50:54.656Z,21.00
2022-08-18T03:53:22.827Z,21.30
2022-08-18T03:55:50.863Z,21.20
2022-08-18T03:58:18.913Z,21.20
2022-08-18T04:00:47.316Z,21.20
2022-08-18T04:03:16.724Z,21.30
2022-08-18T04:05:44.843Z,21.00
2022-08-18T04:08:13.406Z,20.80
2022-08-18T04:10:41.735Z,20.60
2022-08-18T04:13:09.810Z,20.60
2022-08-18T04:15:38.646Z,20.60
2022-08-18T04:18:08.771Z,20.70
2022-08-18T04:20:40.232Z,20.80
2022-08-18T04:23:28.114Z,20.90
2022-08-18T04:25:58.906Z,20.90
2022-08-18T04:28:28.017Z,20.70
2022-08-18T04:30:59.352Z,20.60
2022-08-18T04:33:27.965Z,20.80
2022-08-18T04:35:57.447Z,20.70
2022-08-18T04:38:28.598Z,20.80
2022-08-18T04:40:58.660Z,20.80
2022-08-18T04:43:26.710Z,20.80
2022-08-18T04:45:54.795Z,20.50
2022-08-18T04:48:22.908Z,20.40
2022-08-18T04:50:51.176Z,20.30
2022-08-18T04:53:37.938Z,20.40
2022-08-18T04:56:06.455Z,20.50
2022-08-18T04:58:35.613Z,20.60
2022-08-18T05:01:03.697Z,20.50
2022-08-18T05:03:32.275Z,20.40
2022-08-18T05:06:00.750Z,20.30
2022-08-18T05:08:30.205Z,20.20
2022-08-18T05:11:03.888Z,20.30
2022-08-18T05:13:32.507Z,20.30
2022-08-18T05:16:11.878Z,20.30
2022-08-18T05:18:45.833Z,20.40
2022-08-18T05:21:15.606Z,20.70
2022-08-18T05:23:47.394Z,20.80
2022-08-18T05:26:16.661Z,20.90
2022-08-18T05:28:45.894Z,21.00
2022-08-18T05:31:16.477Z,21.10
2022-08-18T05:33:45.427Z,21.10
2022-08-18T05:36:36.220Z,21.20
2022-08-18T05:39:17.315Z,21.30
2022-08-18T05:41:47.879Z,21.40
2022-08-18T05:44:20.509Z,21.50
2022-08-18T05:46:53.618Z,21.50
2022-08-18T05:49:23.037Z,21.50
2022-08-18T05:51:55.586Z,21.40
2022-08-18T05:54:45.851Z,21.40
2022-08-18T05:57:21.269Z,21.50
2022-08-18T05:59:50.653Z,21.50
2022-08-18T06:02:32.088Z,21.50
2022-08-18T06:05:05.233Z,21.50
2022-08-18T06:07:42.599Z,21.60
2022-08-18T06:10:12.828Z,21.50
2022-08-18T06:12:47.053Z,21.50
2022-08-18T06:15:20.031Z,21.50
2022-08-18T06:18:23.926Z,21.60
2022-08-18T06:21:26.568Z,21.80
2022-08-18T06:24:10.092Z,21.90
2022-08-18T06:26:49.655Z,21.90
2022-08-18T06:29:34.393Z,21.90
2022-08-18T06:32:15.453Z,22.00
2022-08-18T06:35:02.447Z,22.00
2022-08-18T06:37:55.783Z,22.00
2022-08-18T06:40:24.460Z,22.10
2022-08-18T06:42:53.810Z,22.20
2022-08-18T06:45:33.975Z,22.10
2022-08-18T06:48:15.535Z,22.00
2022-08-18T06:50:51.851Z,22.00
2022-08-18T06:53:28.122Z,22.00
2022-08-18T06:55:56.988Z,22.00
2022-08-18T06:58:31.417Z,22.00
2022-08-18T07:01:06.139Z,22.20
2022-08-18T07:03:47.020Z,22.20
2022-08-18T07:06:31.714Z,22.50
2022-08-18T07:09:24.045Z,22.60
2022-08-18T07:12:07.006Z,22.70
2022-08-18T07:14:46.782Z,22.70
2022-08-18T07:17:42.491Z,22.90
2022-08-18T07:20:23.624Z,22.90
2022-08-18T07:23:00.868Z,23.00
2022-08-18T07:25:33.834Z,22.90
2022-08-18T07:28:02.756Z,22.90
2022-08-18T07:30:37.034Z,23.00
2022-08-18T07:33:16.765Z,23.10
2022-08-18T07:35:49.739Z,22.90
2022-08-18T07:38:41.952Z,23.00
2022-08-18T07:41:20.208Z,22.80
2022-08-18T07:44:02.932Z,23.00
2022-08-18T07:46:42.693Z,23.10
2022-08-18T07:49:12.364Z,23.30
2022-08-18T07:51:52.618Z,23.40
2022-08-18T07:54:50.467Z,23.50
2022-08-18T07:57:30.019Z,23.60
2022-08-18T08:00:10.517Z,23.50
2022-08-18T08:02:59.940Z,23.50
2022-08-18T08:05:43.596Z,23.50
2022-08-18T08:08:25.629Z,23.50
2022-08-18T08:11:26.611Z,23.50
2022-08-18T08:14:10.561Z,23.50
2022-08-18T08:16:47.984Z,23.50
2022-08-18T08:20:03.024Z,23.50
2022-08-18T08:22:39.227Z,23.50
2022-08-18T08:25:42.957Z,23.60
2022-08-18T08:28:18.860Z,23.60
2022-08-18T08:30:55.973Z,23.50
2022-08-18T08:33:31.740Z,23.50
2022-08-18T08:36:09.141Z,23.50
2022-08-18T08:38:48.626Z,23.60
2022-08-18T08:41:26.082Z,23.60
2022-08-18T08:44:04.182Z,23.60
2022-08-18T08:46:41.236Z,23.70
2022-08-18T08:49:25.100Z,23.70
2022-08-18T08:51:58.966Z,23.70
2022-08-18T08:54:38.898Z,23.80
2022-08-18T08:57:08.922Z,23.80
2022-08-18T08:59:40.624Z,23.80
2022-08-18T09:02:47.287Z,23.80
2022-08-18T09:05:21.152Z,23.90
2022-08-18T09:08:24.008Z,23.90
2022-08-18T09:11:19.001Z,24.00
2022-08-18T09:14:45.919Z,24.00
2022-08-18T09:17:50.600Z,24.00
2022-08-18T09:21:00.576Z,24.00
2022-08-18T09:23:35.671Z,24.20
2022-08-18T09:26:29.333Z,24.30
2022-08-18T09:29:01.659Z,24.30
2022-08-18T09:31:35.312Z,24.20
2022-08-18T09:38:08.943Z,24.40
2022-08-18T09:41:18.773Z,24.20
2022-08-18T09:44:17.950Z,24.20
2022-08-18T09:46:57.720Z,24.10
2022-08-18T09:49:51.117Z,24.00
2022-08-18T09:53:04.431Z,24.00
2022-08-18T09:56:01.612Z,24.00
2022-08-18T09:59:01.971Z,24.00
2022-08-18T10:01:39.882Z,23.90
2022-08-18T10:04:29.568Z,23.80
2022-08-18T10:07:23.262Z,23.90
2022-08-18T10:11:00.202Z,24.00
2022-08-18T10:13:24.822Z,23.90
2022-08-18T10:16:13.933Z,23.80
2022-08-18T10:19:00.757Z,23.70
2022-08-18T10:21:33.539Z,23.60
2022-08-18T10:24:36.107Z,23.60
2022-08-18T10:27:13.473Z,23.50
2022-08-18T10:29:55.219Z,23.50
2022-08-18T10:32:44.186Z,23.40
2022-08-18T10:35:56.179Z,23.50
2022-08-18T10:38:30.762Z,23.50
2022-08-18T10:41:09.725Z,23.40
2022-08-18T10:43:55.219Z,23.40
2022-08-18T10:46:36.962Z,23.60
2022-08-18T10:49:25.915Z,23.70
2022-08-18T10:52:29.928Z,23.70
2022-08-18T10:55:14.844Z,23.70
2022-08-18T10:58:10.961Z,23.90
2022-08-18T11:01:04.525Z,24.00
2022-08-18T11:04:13.920Z,23.90
2022-08-18T11:06:56.562Z,24.00
2022-08-18T11:09:28.857Z,24.10
2022-08-18T11:12:02.084Z,24.30
2022-08-18T11:15:00.846Z,24.60
2022-08-18T11:18:10.458Z,24.90
2022-08-18T11:20:43.234Z,25.00
2022-08-18T11:23:16.562Z,25.30
2022-08-18T11:25:45.784Z,25.30
2022-08-18T11:28:19.929Z,25.50
2022-08-18T11:30:53.802Z,25.30
2022-08-18T11:33:24.438Z,25.30
2022-08-18T11:35:58.405Z,25.50
2022-08-18T11:38:29.436Z,25.90
2022-08-18T11:41:18.876Z,26.20
2022-08-18T11:43:50.512Z,26.40
2022-08-18T11:46:31.281Z,26.60
2022-08-18T11:49:04.299Z,26.70
2022-08-18T11:51:35.190Z,26.70
2022-08-18T11:54:23.269Z,26.90
2022-08-18T11:56:53.107Z,27.10
2022-08-18T11:59:55.021Z,27.00
2022-08-18T12:02:26.640Z,26.90
2022-08-18T12:05:03.083Z,27.00
2022-08-18T12:07:36.172Z,27.20
2022-08-18T12:10:26.512Z,27.40
2022-08-18T12:13:00.461Z,27.60
2022-08-18T12:15:46.260Z,27.60
2022-08-18T12:18:18.903Z,27.70
2022-08-18T12:20:56.747Z,27.70
2022-08-18T12:23:27.947Z,27.50
2022-08-18T12:29:01.238Z,27.50
2022-08-18T12:31:42.276Z,27.60
2022-08-18T12:34:18.009Z,27.70
2022-08-18T12:36:57.414Z,27.70
2022-08-18T12:39:26.911Z,27.60
2022-08-18T12:41:55.147Z,27.70
2022-08-18T12:44:23.352Z,27.80
2022-08-18T12:46:55.939Z,27.80
2022-08-18T12:49:26.962Z,27.80
2022-08-18T12:51:55.817Z,27.80
2022-08-18T12:54:25.238Z,27.60
2022-08-18T12:56:57.551Z,27.80
2022-08-18T12:59:26.586Z,27.70
2022-08-18T13:02:01.512Z,27.80
2022-08-18T13:04:29.752Z,27.70
2022-08-18T13:07:05.754Z,27.80
2022-08-18T13:09:52.613Z,27.70
2022-08-18T13:12:25.470Z,27.50
2022-08-18T13:14:54.724Z,27.50
2022-08-18T13:17:30.347Z,27.40
2022-08-18T13:20:05.600Z,27.40
2022-08-18T13:22:33.764Z,27.70
2022-08-18T13:25:03.957Z,27.70
2022-08-18T13:27:37.654Z,27.70
2022-08-18T13:30:29.654Z,27.80
2022-08-18T13:33:02.729Z,27.70
2022-08-18T13:35:38.152Z,27.80
2022-08-18T13:38:18.892Z,27.80
2022-08-18T13:40:50.395Z,27.80
2022-08-18T13:43:23.558Z,27.80
2022-08-18T13:45:53.470Z,27.60
2022-08-18T13:48:25.542Z,27.50
2022-08-18T13:50:56.302Z,27.60
2022-08-18T13:53:27.320Z,27.80
2022-08-18T13:55:58.050Z,28.00
2022-08-18T13:58:30.449Z,27.80
2022-08-18T14:01:22.867Z,27.70
2022-08-18T14:03:50.482Z,27.70
2022-08-18T14:06:22.864Z,27.90
2022-08-18T14:08:54.017Z,27.90
2022-08-18T14:11:27.948Z,27.80
2022-08-18T14:14:03.447Z,27.90
2022-08-18T14:16:33.265Z,27.80
2022-08-18T14:19:19.511Z,27.80
2022-08-18T14:22:21.473Z,27.70
2022-08-18T14:25:11.143Z,27.40
2022-08-18T14:27:40.325Z,27.10
2022-08-18T14:30:15.053Z,27.10
2022-08-18T14:32:48.885Z,27.10
2022-08-18T14:35:33.881Z,27.10
2022-08-18T14:38:10.051Z,27.10
2022-08-18T14:40:43.231Z,27.10
2022-08-18T14:43:16.740Z,27.10
2022-08-18T14:45:48.651Z,27.20
2022-08-18T14:48:20.479Z,27.30
2022-08-18T14:50:54.423Z,27.10
2022-08-18T14:53:38.009Z,27.00
2022-08-18T14:56:07.834Z,27.00
2022-08-18T14:58:38.006Z,27.00
2022-08-18T15:01:13.117Z,26.80
2022-08-18T15:03:44.230Z,26.90
2022-08-18T15:06:16.884Z,26.90
2022-08-18T15:08:45.478Z,26.70
2022-08-18T15:11:16.562Z,26.50
2022-08-18T15:13:46.437Z,26.40
2022-08-18T15:16:17.475Z,26.60
2022-08-18T15:18:47.631Z,26.50
2022-08-18T15:21:35.773Z,26.50
2022-08-18T15:24:25.358Z,26.40
2022-08-18T15:26:58.203Z,26.50
2022-08-18T15:29:34.067Z,26.40
2022-08-18T15:32:06.170Z,26.30
2022-08-18T15:34:47.194Z,26.30
2022-08-18T15:37:24.412Z,26.30
2022-08-18T15:40:05.860Z,26.10
2022-08-18T15:42:34.090Z,26.20
2022-08-18T15:45:12.331Z,26.20
2022-08-18T15:47:46.598Z,26.20
2022-08-18T15:50:21.805Z,26.20
2022-08-18T15:52:58.146Z,26.20
2022-08-18T15:55:29.668Z,26.10
2022-08-18T15:58:11.192Z,25.90
2022-08-18T16:00:43.824Z,25.90
2022-08-18T16:03:17.212Z,25.80
2022-08-18T16:05:52.646Z,25.90
2022-08-18T16:08:23.579Z,25.70
2022-08-18T16:10:53.483Z,25.70
2022-08-18T16:13:22.857Z,25.70
2022-08-18T16:15:51.116Z,25.70
2022-08-18T16:18:21.950Z,25.70
2022-08-18T16:20:52.762Z,25.60
2022-08-18T16:23:24.663Z,25.80
2022-08-18T16:25:53.429Z,25.60
2022-08-18T16:28:34.609Z,25.60
2022-08-18T16:31:04.044Z,25.60
2022-08-18T16:33:34.742Z,25.50
2022-08-18T16:36:08.570Z,25.60
2022-08-18T16:38:38.756Z,25.50
2022-08-18T16:41:13.545Z,25.50
2022-08-18T16:43:49.228Z,25.50
2022-08-18T16:46:23.327Z,25.40
2022-08-18T16:48:53.443Z,25.30
2022-08-18T16:51:25.788Z,25.30
2022-08-18T16:53:54.879Z,25.10
2022-08-18T16:56:26.157Z,25.10
2022-08-18T16:59:12.771Z,25.20
2022-08-18T17:01:59.244Z,25.20
2022-08-18T17:04:33.455Z,25.30
2022-08-18T17:07:03.202Z,25.40
2022-08-18T17:09:33.019Z,25.50
2022-08-18T17:12:01.592Z,25.60
2022-08-18T17:14:32.443Z,25.50
2022-08-18T17:17:01.758Z,25.30
2022-08-18T17:19:36.966Z,25.30
2022-08-18T17:22:08.093Z,25.10
2022-08-18T17:24:37.646Z,25.20
2022-08-18T17:27:26.333Z,25.20
2022-08-18T17:30:04.924Z,25.20
2022-08-18T17:32:44.030Z,25.20
2022-08-18T17:35:20.256Z,25.30
2022-08-18T17:37:59.678Z,25.30
2022-08-18T17:40:32.009Z,25.20
2022-08-18T17:43:01.140Z,25.20
2022-08-18T17:45:37.114Z,25.10
2022-08-18T17:48:12.473Z,25.00
2022-08-18T17:51:05.768Z,25.00
2022-08-18T17:53:36.505Z,25.10
2022-08-18T17:56:13.111Z,24.90
2022-08-18T17:58:53.209Z,25.00
2022-08-18T18:01:21.242Z,25.00
2022-08-18T18:03:50.435Z,24.80
2022-08-18T18:06:31.511Z,24.90
2022-08-18T18:09:02.532Z,25.00
2022-08-18T18:11:35.187Z,24.80
2022-08-18T18:14:27.259Z,24.60
2022-08-18T18:17:12.792Z,24.50
2022-08-18T18:19:42.507Z,24.50
2022-08-18T18:22:22.017Z,24.50
2022-08-18T18:24:54.054Z,24.60
2022-08-18T18:27:30.061Z,24.60
2022-08-18T18:30:03.201Z,24.60
2022-08-18T18:32:38.453Z,24.30
2022-08-18T18:35:16.507Z,24.20
2022-08-18T18:37:52.846Z,24.10
2022-08-18T18:40:31.077Z,24.10
2022-08-18T18:43:20.114Z,24.10
2022-08-18T18:46:08.931Z,24.00
2022-08-18T18:48:52.485Z,24.00
2022-08-18T18:51:33.544Z,23.80
2022-08-18T18:54:15.581Z,23.80
2022-08-18T18:56:52.113Z,23.80
2022-08-18T18:59:35.592Z,23.70
2022-08-18T19:02:34.693Z,23.70
2022-08-18T19:05:18.136Z,23.70
2022-08-18T19:08:02.151Z,23.70
2022-08-18T19:10:38.303Z,23.60
2022-08-18T19:13:24.902Z,23.50
2022-08-18T19:16:23.268Z,23.50
2022-08-18T19:18:57.712Z,23.40
2022-08-18T19:22:03.122Z,23.30
2022-08-18T19:24:39.830Z,23.30
2022-08-18T19:27:23.278Z,23.40
2022-08-18T19:29:57.454Z,23.60
2022-08-18T19:32:37.080Z,23.60
2022-08-18T19:35:11.855Z,23.60
2022-08-18T19:38:14.535Z,23.50
2022-08-18T19:40:50.436Z,23.60
2022-08-18T19:43:27.399Z,23.60
2022-08-18T19:46:01.273Z,23.60
2022-08-18T19:48:35.776Z,23.70
2022-08-18T19:51:12.338Z,23.70
2022-08-18T19:54:11.185Z,23.90
2022-08-18T19:56:57.670Z,23.90
2022-08-18T19:59:52.475Z,23.60
2022-08-18T20:02:35.320Z,23.70
2022-08-18T20:05:20.514Z,23.70
2022-08-18T20:08:11.226Z,23.60
2022-08-18T20:11:17.225Z,23.50
2022-08-18T20:13:46.746Z,23.30
2022-08-18T20:16:43.772Z,23.30
2022-08-18T20:19:50.760Z,23.40
2022-08-18T20:22:36.210Z,23.40
2022-08-18T20:25:32.856Z,23.40
2022-08-18T20:28:23.547Z,23.40
2022-08-18T20:31:06.849Z,23.30
2022-08-18T20:33:43.257Z,23.30
2022-08-18T20:36:20.949Z,23.40
2022-08-18T20:38:53.451Z,23.30
2022-08-18T20:41:45.372Z,23.30
2022-08-18T20:44:49.768Z,23.30
2022-08-18T20:47:46.542Z,23.20
2022-08-18T20:51:02.653Z,23.10
2022-08-18T20:53:56.586Z,23.00
2022-08-18T20:56:43.831Z,22.90
2022-08-18T20:59:20.155Z,22.70
2022-08-18T21:02:02.157Z,22.80
2022-08-18T21:04:48.328Z,22.90
2022-08-18T21:07:36.203Z,22.80
2022-08-18T21:10:13.912Z,22.80
2022-08-18T21:12:51.915Z,22.70
2022-08-18T21:15:24.269Z,22.70
2022-08-18T21:18:00.191Z,22.60
2022-08-18T21:20:29.684Z,22.70
2022-08-18T21:23:13.342Z,22.80
2022-08-18T21:25:52.591Z,22.70
2022-08-18T21:28:22.125Z,22.70
2022-08-18T21:31:42.802Z,22.70
2022-08-18T21:33:50.921Z,22.60
2022-08-18T21:36:20.439Z,22.50
2022-08-18T21:39:03.487Z,22.50
2022-08-18T21:41:38.197Z,22.50
2022-08-18T21:44:09.547Z,22.50
2022-08-18T21:46:38.800Z,22.50
2022-08-18T21:49:07.856Z,22.50
2022-08-18T21:51:48.513Z,22.40
2022-08-18T21:54:22.252Z,22.50
2022-08-18T21:57:20.493Z,22.40
2022-08-18T22:00:18.018Z,22.30
2022-08-18T22:02:47.093Z,22.20
2022-08-18T22:05:29.064Z,22.20
2022-08-18T22:08:21.014Z,22.10
2022-08-18T22:11:59.657Z,22.00
2022-08-18T22:14:36.002Z,21.90
2022-08-18T22:17:30.532Z,21.90
2022-08-18T22:20:36.653Z,21.90
2022-08-18T22:23:35.235Z,21.90
2022-08-18T22:26:12.353Z,21.90
2022-08-18T22:28:51.340Z,21.90
2022-08-18T22:31:21.392Z,21.80
2022-08-18T22:33:50.584Z,21.80
2022-08-18T22:36:22.295Z,21.80
2022-08-18T22:38:52.293Z,21.70
2022-08-18T22:41:26.018Z,21.60
2022-08-18T22:43:55.495Z,21.60
2022-08-18T22:46:25.092Z,21.70
2022-08-18T22:48:54.013Z,21.60
2022-08-18T22:51:24.974Z,21.60
2022-08-18T22:53:57.528Z,21.60
2022-08-18T22:56:35.132Z,21.60
2022-08-18T22:59:13.700Z,21.60
2022-08-18T23:01:48.474Z,21.70
2022-08-18T23:04:22.288Z,21.60
2022-08-18T23:06:52.581Z,21.70
2022-08-18T23:09:23.709Z,21.80
2022-08-18T23:11:55.804Z,21.80
2022-08-18T23:14:24.138Z,22.00
2022-08-18T23:16:52.607Z,22.30
2022-08-18T23:19:21.996Z,22.30
2022-08-18T23:21:51.589Z,22.20
2022-08-18T23:24:21.195Z,22.20
2022-08-18T23:26:50.293Z,22.10
2022-08-18T23:29:21.427Z,22.00
2022-08-18T23:31:51.615Z,21.80
2022-08-18T23:34:24.432Z,21.70
2022-08-18T23:36:58.720Z,21.60
2022-08-18T23:39:29.031Z,21.60
2022-08-18T23:41:58.023Z,21.60
2022-08-18T23:44:28.172Z,21.60
2022-08-18T23:46:57.808Z,21.50
2022-08-18T23:49:26.225Z,21.50
2022-08-18T23:51:56.041Z,21.50
2022-08-18T23:54:27.931Z,21.40
2022-08-18T23:56:56.266Z,21.40
2022-08-18T23:59:28.204Z,21.30
